Time,TemperatureF,DewpointF,PressureIn,WindDirection,WindDirectionDegrees,WindSpeedMPH,WindSpeedGustMPH,Humidity,HourlyPrecipIn,Conditions,Clouds,dailyrainin,SoftwareType,DateUTC
2014-10-22 00:03:00,57.9,57.3,29.76,North,0,4.7,4.7,98,0.00,,,0.00,Kevins Acu-RapidQ4,2014-10-22 04:03:00,
2014-10-22 00:08:00,57.9,57.3,29.76,North,0,2.2,5.8,98,0.00,,,0.00,Kevins Acu-RapidQ4,2014-10-22 04:08:00,
2014-10-22 00:13:00,57.7,56.8,29.77,North,0,0.0,5.8,97,0.00,,,0.00,Kevins Acu-RapidQ4,2014-10-22 04:13:00,
2014-10-22 00:18:00,57.7,56.8,29.77,North,0,0.0,3.2,97,0.00,,,0.00,Kevins Acu-RapidQ4,2014-10-22 04:18:00,
2014-10-22 00:23:00,57.7,56.8,29.76,North,0,1.7,3.2,97,0.00,,,0.00,Kevins Acu-RapidQ4,2014-10-22 04:23:00,
2014-10-22 00:28:00,57.6,56.7,29.76,North,0,2.2,5.8,97,0.00,,,0.00,Kevins Acu-RapidQ4,2014-10-22 04:28:00,
2014-10-22 00:33:00,57.4,56.2,29.77,NE,45,3.7,7.3,96,0.00,,,0.00,Kevins Acu-RapidQ4,2014-10-22 04:33:00,
2014-10-22 00:38:00,57.4,56.2,29.76,North,0,2.2,7.3,96,0.00,,,0.00,Kevins Acu-RapidQ4,2014-10-22 04:38:00,
2014-10-22 00:43:00,57.2,56.0,29.76,ENE,67,7.3,7.3,96,0.00,,,0.00,Kevins Acu-RapidQ4,2014-10-22 04:43:00,
2014-10-22 00:48:00,57.0,55.8,29.75,North,0,3.2,7.3,96,0.00,,,0.00,Kevins Acu-RapidQ4,2014-10-22 04:48:00,
2014-10-22 00:53:00,57.0,55.8,29.75,North,0,2.7,7.3,96,0.00,,,0.00,Kevins Acu-RapidQ4,2014-10-22 04:53:00,
2014-10-22 00:58:00,56.8,55.6,29.74,NNW,337,5.3,5.8,96,0.00,,,0.00,Kevins Acu-RapidQ4,2014-10-22 04:58:00,
2014-10-22 01:03:00,56.8,55.6,29.74,NNW,337,6.3,6.3,96,0.00,,,0.00,Kevins Acu-RapidQ4,2014-10-22 05:03:00,
2014-10-22 01:08:00,56.7,55.5,29.74,North,0,4.2,8.9,96,0.00,,,0.00,Kevins Acu-RapidQ4,2014-10-22 05:08:00,
2014-10-22 01:13:00,56.7,55.5,29.74,North,0,3.7,8.9,96,0.00,,,0.00,Kevins Acu-RapidQ4,2014-10-22 05:13:00,
2014-10-22 01:18:00,56.5,55.3,29.74,NNE,22,2.7,9.9,96,0.00,,,0.00,Kevins Acu-RapidQ4,2014-10-22 05:18:00,
2014-10-22 01:23:00,56.5,55.3,29.74,NW,315,4.2,9.9,96,0.00,,,0.00,Kevins Acu-RapidQ4,2014-10-22 05:23:00,
2014-10-22 01:28:00,56.3,55.1,29.75,North,0,4.7,7.3,96,0.00,,,0.00,Kevins Acu-RapidQ4,2014-10-22 05:28:00,
2014-10-22 01:33:00,56.3,55.1,29.75,NNW,337,5.8,7.3,96,0.00,,,0.00,Kevins Acu-RapidQ4,2014-10-22 05:33:00,
2014-10-22 01:38:00,56.3,55.1,29.74,NNE,22,4.7,7.3,96,0.00,,,0.00,Kevins Acu-RapidQ4,2014-10-22 05:38:00,
2014-10-22 01:43:00,56.5,55.3,29.74,ENE,67,2.7,7.3,96,0.00,,,0.00,Kevins Acu-RapidQ4,2014-10-22 05:43:00,
2014-10-22 01:48:00,56.5,55.3,29.74,NNE,22,3.2,6.8,96,0.00,,,0.00,Kevins Acu-RapidQ4,2014-10-22 05:48:00,
2014-10-22 01:53:00,56.5,55.3,29.75,NNE,22,4.7,6.3,96,0.00,,,0.00,Kevins Acu-RapidQ4,2014-10-22 05:53:00,
2014-10-22 01:58:00,56.5,55.3,29.74,NNE,22,2.7,9.9,96,0.00,,,0.00,Kevins Acu-RapidQ4,2014-10-22 05:58:00,
2014-10-22 02:03:00,56.7,55.2,29.75,NNE,22,6.3,9.9,95,0.00,,,0.00,Kevins Acu-RapidQ4,2014-10-22 06:03:00,
2014-10-22 02:08:00,56.7,55.2,29.75,NNE,22,4.7,8.3,95,0.00,,,0.00,Kevins Acu-RapidQ4,2014-10-22 06:08:00,
2014-10-22 02:13:00,56.7,55.2,29.75,NNE,22,3.2,6.8,95,0.00,,,0.00,Kevins Acu-RapidQ4,2014-10-22 06:13:00,
2014-10-22 02:18:00,56.8,55.3,29.75,NNE,22,3.2,7.8,95,0.00,,,0.00,Kevins Acu-RapidQ4,2014-10-22 06:18:00,
2014-10-22 02:23:00,56.8,55.3,29.74,NNE,22,4.7,9.4,95,0.00,,,0.00,Kevins Acu-RapidQ4,2014-10-22 06:23:00,
2014-10-22 02:28:00,56.8,55.3,29.74,NNE,22,1.1,9.4,95,0.00,,,0.00,Kevins Acu-RapidQ4,2014-10-22 06:28:00,
2014-10-22 02:33:00,56.8,55.3,29.74,NNE,22,4.2,5.8,95,0.00,,,0.00,Kevins Acu-RapidQ4,2014-10-22 06:33:00,
2014-10-22 02:38:00,57.0,55.5,29.74,NW,315,1.7,5.8,95,0.00,,,0.00,Kevins Acu-RapidQ4,2014-10-22 06:38:00,
2014-10-22 02:43:00,57.0,55.5,29.73,NE,45,3.7,4.7,95,0.00,,,0.00,Kevins Acu-RapidQ4,2014-10-22 06:43:00,
2014-10-22 02:48:00,57.0,55.5,29.74,NNW,337,0.0,5.3,95,0.00,,,0.00,Kevins Acu-RapidQ4,2014-10-22 06:48:00,
2014-10-22 02:53:00,57.0,55.5,29.74,NNE,22,3.2,5.8,95,0.00,,,0.00,Kevins Acu-RapidQ4,2014-10-22 06:53:00,
2014-10-22 02:58:00,57.0,55.5,29.74,NNW,337,3.7,5.8,95,0.00,,,0.00,Kevins Acu-RapidQ4,2014-10-22 06:58:00,
2014-10-22 03:02:00,57.0,55.5,29.74,NNE,22,5.3,5.3,95,0.00,,,0.00,Kevins Acu-RapidQ4,2014-10-22 07:02:00,
2014-10-22 03:07:00,57.0,55.3,29.73,NNE,22,2.7,6.3,94,0.00,,,0.00,Kevins Acu-RapidQ4,2014-10-22 07:07:00,
2014-10-22 03:12:00,57.0,55.3,29.74,ENE,67,2.7,6.3,94,0.00,,,0.00,Kevins Acu-RapidQ4,2014-10-22 07:12:00,
2014-10-22 03:17:00,57.0,55.3,29.74,NNW,337,6.3,6.3,94,0.00,,,0.00,Kevins Acu-RapidQ4,2014-10-22 07:17:00,
2014-10-22 03:22:00,57.0,55.3,29.74,North,0,2.2,6.3,94,0.00,,,0.00,Kevins Acu-RapidQ4,2014-10-22 07:22:00,
2014-10-22 03:27:00,57.0,55.3,29.74,NNE,22,4.2,6.8,94,0.00,,,0.00,Kevins Acu-RapidQ4,2014-10-22 07:27:00,
2014-10-22 03:32:00,57.0,55.3,29.74,North,0,4.7,6.8,94,0.00,,,0.00,Kevins Acu-RapidQ4,2014-10-22 07:32:00,
2014-10-22 03:37:00,57.0,55.3,29.74,NE,45,4.7,6.8,94,0.00,,,0.00,Kevins Acu-RapidQ4,2014-10-22 07:37:00,
2014-10-22 03:42:00,57.0,55.3,29.74,NNE,22,4.2,6.8,94,0.00,,,0.00,Kevins Acu-RapidQ4,2014-10-22 07:42:00,
2014-10-22 03:47:00,57.0,55.3,29.74,North,0,1.1,6.3,94,0.00,,,0.00,Kevins Acu-RapidQ4,2014-10-22 07:47:00,
2014-10-22 03:52:00,57.0,55.0,29.74,NNE,22,2.2,6.3,93,0.00,,,0.00,Kevins Acu-RapidQ4,2014-10-22 07:52:00,
2014-10-22 03:57:00,56.8,54.8,29.74,North,0,7.3,9.4,93,0.00,,,0.00,Kevins Acu-RapidQ4,2014-10-22 07:57:00,
2014-10-22 04:02:00,56.8,54.8,29.74,North,0,4.7,9.4,93,0.00,,,0.00,Kevins Acu-RapidQ4,2014-10-22 08:02:00,
2014-10-22 04:07:00,56.7,54.7,29.73,ENE,67,3.2,7.8,93,0.00,,,0.00,Kevins Acu-RapidQ4,2014-10-22 08:07:00,
2014-10-22 04:12:00,56.7,54.7,29.74,NNW,337,6.8,8.3,93,0.00,,,0.00,Kevins Acu-RapidQ4,2014-10-22 08:12:00,
2014-10-22 04:17:00,56.5,54.5,29.74,North,0,3.2,9.9,93,0.00,,,0.00,Kevins Acu-RapidQ4,2014-10-22 08:17:00,
2014-10-22 04:22:00,56.5,54.5,29.75,NNE,22,6.3,9.9,93,0.00,,,0.00,Kevins Acu-RapidQ4,2014-10-22 08:22:00,
2014-10-22 04:27:00,56.5,54.5,29.74,NNE,22,5.8,6.3,93,0.00,,,0.00,Kevins Acu-RapidQ4,2014-10-22 08:27:00,
2014-10-22 04:32:00,56.3,54.3,29.75,SSE,157,2.7,6.8,93,0.00,,,0.00,Kevins Acu-RapidQ4,2014-10-22 08:32:00,
2014-10-22 04:37:00,56.3,54.3,29.75,NNE,22,4.7,6.8,93,0.00,,,0.00,Kevins Acu-RapidQ4,2014-10-22 08:37:00,
2014-10-22 04:42:00,56.1,54.1,29.75,North,0,2.2,6.3,93,0.00,,,0.00,Kevins Acu-RapidQ4,2014-10-22 08:42:00,
2014-10-22 04:47:00,55.9,53.9,29.75,NNE,22,3.7,10.4,93,0.00,,,0.00,Kevins Acu-RapidQ4,2014-10-22 08:47:00,
2014-10-22 04:52:00,55.9,53.9,29.75,NNE,22,3.7,10.9,93,0.00,,,0.00,Kevins Acu-RapidQ4,2014-10-22 08:52:00,
2014-10-22 04:57:00,55.8,53.8,29.76,NE,45,7.8,10.9,93,0.00,,,0.00,Kevins Acu-RapidQ4,2014-10-22 08:57:00,
2014-10-22 05:02:00,55.6,53.6,29.75,NE,45,4.7,10.4,93,0.00,,,0.00,Kevins Acu-RapidQ4,2014-10-22 09:02:00,
2014-10-22 05:07:00,55.6,53.6,29.75,NNE,22,2.7,9.9,93,0.00,,,0.00,Kevins Acu-RapidQ4,2014-10-22 09:07:00,
2014-10-22 05:12:00,55.6,53.6,29.75,NNW,337,4.2,6.8,93,0.00,,,0.00,Kevins Acu-RapidQ4,2014-10-22 09:12:00,
2014-10-22 05:17:00,55.6,53.6,29.75,NNW,337,4.7,9.4,93,0.00,,,0.00,Kevins Acu-RapidQ4,2014-10-22 09:17:00,
2014-10-22 05:22:00,55.4,53.7,29.75,NNE,22,2.2,9.4,94,0.00,,,0.00,Kevins Acu-RapidQ4,2014-10-22 09:22:00,
2014-10-22 05:27:00,55.2,53.5,29.75,NNW,337,6.3,8.9,94,0.00,,,0.00,Kevins Acu-RapidQ4,2014-10-22 09:27:00,
2014-10-22 05:32:00,55.2,53.5,29.75,North,0,6.3,9.9,94,0.00,,,0.00,Kevins Acu-RapidQ4,2014-10-22 09:32:00,
2014-10-22 05:37:00,55.0,53.3,29.75,NE,45,7.3,9.9,94,0.00,,,0.00,Kevins Acu-RapidQ4,2014-10-22 09:37:00,
2014-10-22 05:42:00,54.9,53.2,29.75,North,0,5.8,10.4,94,0.00,,,0.00,Kevins Acu-RapidQ4,2014-10-22 09:42:00,
2014-10-22 05:47:00,54.9,53.2,29.75,North,0,4.7,10.4,94,0.00,,,0.00,Kevins Acu-RapidQ4,2014-10-22 09:47:00,
2014-10-22 05:52:00,54.9,53.2,29.75,North,0,4.7,9.4,94,0.00,,,0.00,Kevins Acu-RapidQ4,2014-10-22 09:52:00,
2014-10-22 05:57:00,54.9,53.2,29.75,NNW,337,2.7,7.8,94,0.00,,,0.00,Kevins Acu-RapidQ4,2014-10-22 09:57:00,
2014-10-22 06:02:00,54.7,53.0,29.75,NNE,22,6.8,7.8,94,0.00,,,0.00,Kevins Acu-RapidQ4,2014-10-22 10:02:00,
2014-10-22 06:07:00,54.7,53.0,29.74,NNE,22,4.7,7.8,94,0.00,,,0.00,Kevins Acu-RapidQ4,2014-10-22 10:07:00,
2014-10-22 06:12:00,54.5,52.8,29.75,NNW,337,7.3,9.9,94,0.00,,,0.00,Kevins Acu-RapidQ4,2014-10-22 10:12:00,
2014-10-22 06:17:00,54.3,52.6,29.75,NNW,337,3.7,9.9,94,0.00,,,0.00,Kevins Acu-RapidQ4,2014-10-22 10:17:00,
2014-10-22 06:22:00,54.3,52.6,29.75,NNE,22,2.7,8.9,94,0.00,,,0.00,Kevins Acu-RapidQ4,2014-10-22 10:22:00,
2014-10-22 06:27:00,54.3,52.6,29.75,NNW,337,3.2,8.3,94,0.00,,,0.00,Kevins Acu-RapidQ4,2014-10-22 10:27:00,
2014-10-22 06:32:00,54.3,52.6,29.75,NNE,22,3.2,8.3,94,0.00,,,0.00,Kevins Acu-RapidQ4,2014-10-22 10:32:00,
2014-10-22 06:37:00,54.1,52.4,29.74,North,0,4.7,8.3,94,0.00,,,0.00,Kevins Acu-RapidQ4,2014-10-22 10:37:00,
2014-10-22 06:42:00,54.1,52.4,29.74,NNE,22,4.7,11.4,94,0.00,,,0.00,Kevins Acu-RapidQ4,2014-10-22 10:42:00,
2014-10-22 06:47:00,54.1,52.4,29.74,NNE,22,6.3,11.4,94,0.00,,,0.00,Kevins Acu-RapidQ4,2014-10-22 10:47:00,
2014-10-22 06:52:00,54.0,52.3,29.74,NNE,22,9.4,14.5,94,0.00,,,0.00,Kevins Acu-RapidQ4,2014-10-22 10:52:00,
2014-10-22 06:57:00,54.0,52.3,29.74,NNE,22,3.7,14.5,94,0.00,,,0.00,Kevins Acu-RapidQ4,2014-10-22 10:57:00,
2014-10-22 07:02:00,54.0,52.3,29.74,NNW,337,5.8,6.8,94,0.00,,,0.00,Kevins Acu-RapidQ4,2014-10-22 11:02:00,
2014-10-22 07:07:00,54.0,52.6,29.74,NNW,337,6.3,6.8,95,0.00,,,0.00,Kevins Acu-RapidQ4,2014-10-22 11:07:00,
2014-10-22 07:12:00,54.0,52.6,29.74,North,0,5.8,10.9,95,0.00,,,0.00,Kevins Acu-RapidQ4,2014-10-22 11:12:00,
2014-10-22 07:17:00,54.0,52.6,29.74,NNE,22,4.7,10.9,95,0.00,,,0.00,Kevins Acu-RapidQ4,2014-10-22 11:17:00,
2014-10-22 07:22:00,54.0,52.6,29.75,North,0,5.3,8.9,95,0.00,,,0.00,Kevins Acu-RapidQ4,2014-10-22 11:22:00,
2014-10-22 07:27:00,54.0,52.6,29.75,NE,45,5.3,10.9,95,0.00,,,0.00,Kevins Acu-RapidQ4,2014-10-22 11:27:00,
2014-10-22 07:32:00,54.0,52.6,29.75,NE,45,4.2,10.9,95,0.00,,,0.00,Kevins Acu-RapidQ4,2014-10-22 11:32:00,
2014-10-22 07:37:00,54.0,52.6,29.76,NE,45,5.3,10.4,95,0.00,,,0.00,Kevins Acu-RapidQ4,2014-10-22 11:37:00,
2014-10-22 07:42:00,54.0,52.6,29.76,NW,315,3.2,9.9,95,0.00,,,0.00,Kevins Acu-RapidQ4,2014-10-22 11:42:00,
2014-10-22 07:47:00,54.0,52.6,29.76,NNE,22,8.9,10.4,95,0.00,,,0.00,Kevins Acu-RapidQ4,2014-10-22 11:47:00,
2014-10-22 07:52:00,54.1,52.7,29.76,NNE,22,7.8,10.4,95,0.00,,,0.00,Kevins Acu-RapidQ4,2014-10-22 11:52:00,
2014-10-22 07:57:00,54.1,52.7,29.76,North,0,3.7,8.9,95,0.00,,,0.00,Kevins Acu-RapidQ4,2014-10-22 11:57:00,
2014-10-22 08:02:00,54.3,52.6,29.76,North,0,7.3,10.4,94,0.00,,,0.00,Kevins Acu-RapidQ4,2014-10-22 12:02:00,
2014-10-22 08:07:00,54.3,52.6,29.77,NE,45,4.7,10.4,94,0.00,,,0.00,Kevins Acu-RapidQ4,2014-10-22 12:07:00,
2014-10-22 08:12:00,54.3,52.6,29.77,NNW,337,5.8,6.8,94,0.00,,,0.00,Kevins Acu-RapidQ4,2014-10-22 12:12:00,
2014-10-22 08:17:00,54.3,52.6,29.76,NNW,337,7.8,9.9,94,0.00,,,0.00,Kevins Acu-RapidQ4,2014-10-22 12:17:00,
2014-10-22 08:22:00,54.3,52.6,29.77,NNW,337,4.2,9.9,94,0.00,,,0.00,Kevins Acu-RapidQ4,2014-10-22 12:22:00,
2014-10-22 08:27:00,54.5,52.8,29.77,NNE,22,5.3,9.4,94,0.00,,,0.00,Kevins Acu-RapidQ4,2014-10-22 12:27:00,
2014-10-22 08:32:00,54.7,52.7,29.77,North,0,4.2,9.4,93,0.00,,,0.00,Kevins Acu-RapidQ4,2014-10-22 12:32:00,
2014-10-22 08:37:00,54.9,52.9,29.77,NNE,22,4.7,9.4,93,0.00,,,0.00,Kevins Acu-RapidQ4,2014-10-22 12:37:00,
2014-10-22 08:42:00,55.0,53.0,29.77,NNE,22,6.8,9.4,93,0.00,,,0.00,Kevins Acu-RapidQ4,2014-10-22 12:42:00,
2014-10-22 08:47:00,55.0,52.7,29.77,NNE,22,8.9,11.9,92,0.00,,,0.00,Kevins Acu-RapidQ4,2014-10-22 12:47:00,
2014-10-22 08:52:00,55.2,52.9,29.77,NNE,22,3.7,11.9,92,0.00,,,0.00,Kevins Acu-RapidQ4,2014-10-22 12:52:00,
2014-10-22 08:57:00,55.4,53.1,29.77,WNW,292,4.7,9.4,92,0.00,,,0.00,Kevins Acu-RapidQ4,2014-10-22 12:57:00,
2014-10-22 09:02:00,55.4,53.1,29.77,North,0,7.3,9.4,92,0.00,,,0.00,Kevins Acu-RapidQ4,2014-10-22 13:02:00,
2014-10-22 09:07:00,55.8,53.5,29.77,North,0,7.3,9.4,92,0.00,,,0.00,Kevins Acu-RapidQ4,2014-10-22 13:07:00,
2014-10-22 09:12:00,55.8,53.5,29.77,NNW,337,5.8,9.4,92,0.00,,,0.00,Kevins Acu-RapidQ4,2014-10-22 13:12:00,
2014-10-22 09:17:00,55.6,53.3,29.77,North,0,8.9,10.4,92,0.00,,,0.00,Kevins Acu-RapidQ4,2014-10-22 13:17:00,
2014-10-22 09:22:00,55.6,53.3,29.77,NNW,337,7.8,10.4,92,0.00,,,0.00,Kevins Acu-RapidQ4,2014-10-22 13:22:00,
2014-10-22 09:27:00,55.6,53.3,29.76,NNE,22,6.8,10.4,92,0.00,,,0.00,Kevins Acu-RapidQ4,2014-10-22 13:27:00,
2014-10-22 09:32:00,55.6,53.3,29.76,NNE,22,6.8,8.9,92,0.00,,,0.00,Kevins Acu-RapidQ4,2014-10-22 13:32:00,
2014-10-22 09:37:00,55.6,53.3,29.75,NNE,22,6.3,10.9,92,0.00,,,0.00,Kevins Acu-RapidQ4,2014-10-22 13:37:00,
2014-10-22 09:42:00,55.6,53.3,29.75,NNE,22,9.9,12.5,92,0.00,,,0.00,Kevins Acu-RapidQ4,2014-10-22 13:42:00,
2014-10-22 09:47:00,55.4,53.4,29.75,NE,45,3.7,16.1,93,0.00,,,0.00,Kevins Acu-RapidQ4,2014-10-22 13:47:00,
2014-10-22 09:52:00,55.4,53.4,29.74,NE,45,7.8,16.1,93,0.00,,,0.00,Kevins Acu-RapidQ4,2014-10-22 13:52:00,
2014-10-22 09:57:00,55.6,53.6,29.76,North,0,5.8,10.9,93,0.00,,,0.00,Kevins Acu-RapidQ4,2014-10-22 13:57:00,
2014-10-22 10:02:00,55.8,53.8,29.75,NNE,22,7.8,10.9,93,0.00,,,0.00,Kevins Acu-RapidQ4,2014-10-22 14:02:00,
2014-10-22 10:07:00,55.8,53.8,29.75,NNE,22,7.8,9.4,93,0.00,,,0.00,Kevins Acu-RapidQ4,2014-10-22 14:07:00,
2014-10-22 10:12:00,55.9,53.9,29.75,North,0,8.9,10.9,93,0.00,,,0.00,Kevins Acu-RapidQ4,2014-10-22 14:12:00,
2014-10-22 10:17:00,56.1,54.1,29.75,NNE,22,3.2,12.5,93,0.00,,,0.00,Kevins Acu-RapidQ4,2014-10-22 14:17:00,
2014-10-22 10:22:00,56.1,54.1,29.75,North,0,8.9,12.5,93,0.00,,,0.00,Kevins Acu-RapidQ4,2014-10-22 14:22:00,
2014-10-22 10:27:00,56.1,54.1,29.75,NNE,22,4.7,9.4,93,0.00,,,0.00,Kevins Acu-RapidQ4,2014-10-22 14:27:00,
2014-10-22 10:32:00,56.1,54.1,29.75,NNW,337,7.3,9.4,93,0.00,,,0.00,Kevins Acu-RapidQ4,2014-10-22 14:32:00,
2014-10-22 10:37:00,56.3,54.3,29.75,NNE,22,8.9,13.0,93,0.00,,,0.00,Kevins Acu-RapidQ4,2014-10-22 14:37:00,
2014-10-22 10:42:00,56.5,54.5,29.75,NW,315,11.9,13.0,93,0.00,,,0.00,Kevins Acu-RapidQ4,2014-10-22 14:42:00,
2014-10-22 10:47:00,56.7,54.7,29.75,NE,45,1.7,11.9,93,0.00,,,0.00,Kevins Acu-RapidQ4,2014-10-22 14:47:00,
2014-10-22 10:52:00,56.7,54.7,29.76,NNE,22,3.7,11.4,93,0.00,,,0.00,Kevins Acu-RapidQ4,2014-10-22 14:52:00,
2014-10-22 10:57:00,56.7,54.7,29.75,NW,315,2.7,11.4,93,0.00,,,0.00,Kevins Acu-RapidQ4,2014-10-22 14:57:00,
2014-10-22 11:03:00,56.7,54.7,29.75,North,0,6.8,7.3,93,0.00,,,0.00,Kevins Acu-RapidQ4,2014-10-22 15:03:00,
2014-10-22 11:08:00,56.8,54.8,29.75,North,0,3.7,6.8,93,0.00,,,0.00,Kevins Acu-RapidQ4,2014-10-22 15:08:00,
2014-10-22 11:13:00,56.8,55.1,29.75,NNE,22,3.2,9.4,94,0.00,,,0.00,Kevins Acu-RapidQ4,2014-10-22 15:13:00,
2014-10-22 11:18:00,56.8,55.1,29.75,North,0,7.3,9.4,94,0.00,,,0.00,Kevins Acu-RapidQ4,2014-10-22 15:18:00,
2014-10-22 11:23:00,56.7,55.0,29.75,NE,45,7.8,10.4,94,0.00,,,0.00,Kevins Acu-RapidQ4,2014-10-22 15:23:00,
2014-10-22 11:28:00,56.7,55.0,29.75,NNW,337,9.4,10.4,94,0.00,,,0.00,Kevins Acu-RapidQ4,2014-10-22 15:28:00,
2014-10-22 11:33:00,56.8,55.1,29.75,NNE,22,2.7,9.9,94,0.00,,,0.00,Kevins Acu-RapidQ4,2014-10-22 15:33:00,
2014-10-22 11:38:00,57.0,55.0,29.75,NNW,337,6.8,13.5,93,0.00,,,0.00,Kevins Acu-RapidQ4,2014-10-22 15:38:00,
2014-10-22 11:43:00,57.0,54.7,29.75,NNW,337,4.7,13.5,92,0.00,,,0.00,Kevins Acu-RapidQ4,2014-10-22 15:43:00,
2014-10-22 11:48:00,57.2,54.6,29.75,NNE,22,6.8,19.1,91,0.00,,,0.00,Kevins Acu-RapidQ4,2014-10-22 15:48:00,
2014-10-22 11:53:00,57.4,54.8,29.74,NNW,337,9.9,19.1,91,0.00,,,0.00,Kevins Acu-RapidQ4,2014-10-22 15:53:00,
2014-10-22 11:58:00,57.6,55.0,29.74,NNE,22,4.2,15.5,91,0.00,,,0.00,Kevins Acu-RapidQ4,2014-10-22 15:58:00,
2014-10-22 12:03:00,57.4,54.8,29.74,NNW,337,3.2,12.5,91,0.00,,,0.00,Kevins Acu-RapidQ4,2014-10-22 16:03:00,
2014-10-22 12:07:00,57.2,54.6,29.73,North,0,5.3,12.5,91,0.00,,,0.00,Kevins Acu-RapidQ4,2014-10-22 16:07:00,
2014-10-22 12:12:00,57.0,54.4,29.73,NE,45,4.7,11.9,91,0.00,,,0.00,Kevins Acu-RapidQ4,2014-10-22 16:12:00,
2014-10-22 12:17:00,57.0,54.7,29.73,NNW,337,5.8,11.9,92,0.00,,,0.00,Kevins Acu-RapidQ4,2014-10-22 16:17:00,
2014-10-22 12:22:00,56.8,54.5,29.73,NNE,22,5.8,10.9,92,0.00,,,0.00,Kevins Acu-RapidQ4,2014-10-22 16:22:00,